Time;durP1;ratioP1;P1;durP2;ratioP2;P2;SDS_P1;SDS_P2;PMS_P1;PMS_P2;Temp;Humidity;BMP_temperature;BMP_pressure;BME280_temperature;BME280_humidity;BME280_pressure;Samples;Min_cycle;Max_cycle;Signal;HPM_P1;HPM_P2
2022/05/15 00:01:10;;;;;;;6.80;4.67;;;;;;;7.83;100.00;94171.75;5011451;28;20266;-69
2022/05/15 00:03:56;;;;;;;9.00;5.20;;;;;;;7.82;100.00;94172.31;5001231;28;20206;-69
2022/05/15 00:06:40;;;;;;;8.17;4.83;;;;;;;7.71;100.00;94174.22;5023786;28;20202;-69
2022/05/15 00:09:24;;;;;;;10.47;5.87;;;;;;;7.63;100.00;94173.56;5029706;28;20221;-69
2022/05/15 00:12:09;;;;;;;11.20;6.33;;;;;;;7.58;100.00;94171.72;5017796;28;20205;-69
2022/05/15 00:14:53;;;;;;;5.97;4.90;;;;;;;7.49;100.00;94166.75;5011067;28;20282;-69
2022/05/15 00:17:37;;;;;;;8.53;5.33;;;;;;;7.45;100.00;94171.25;5012581;28;20261;-70
2022/05/15 00:20:21;;;;;;;5.37;4.83;;;;;;;7.37;100.00;94162.91;5015076;28;20751;-69
2022/05/15 00:23:07;;;;;;;8.47;5.77;;;;;;;7.32;100.00;94166.66;5005092;28;20241;-68
2022/05/15 00:25:52;;;;;;;8.17;5.37;;;;;;;7.30;100.00;94164.44;5008488;28;20261;-69
2022/05/15 00:28:37;;;;;;;5.83;4.93;;;;;;;7.26;100.00;94163.34;5028918;28;20276;-69
2022/05/15 00:31:21;;;;;;;10.17;6.07;;;;;;;7.18;100.00;94168.22;5007090;28;20197;-69
2022/05/15 00:34:06;;;;;;;7.37;5.47;;;;;;;7.10;100.00;94167.50;5011565;28;20202;-69
2022/05/15 00:36:50;;;;;;;11.37;5.23;;;;;;;7.07;100.00;94163.06;5008688;28;20349;-69
2022/05/15 00:39:34;;;;;;;8.17;5.70;;;;;;;7.03;100.00;94162.72;5021720;28;20229;-69
2022/05/15 00:42:18;;;;;;;5.97;5.27;;;;;;;6.97;100.00;94164.97;5011873;28;20229;-69
2022/05/15 00:45:04;;;;;;;7.30;6.30;;;;;;;6.85;100.00;94162.56;5005469;28;20234;-69
2022/05/15 00:47:49;;;;;;;7.73;5.77;;;;;;;6.82;100.00;94158.13;5016300;28;20205;-69
2022/05/15 00:50:37;;;;;;;7.63;5.90;;;;;;;6.82;100.00;94158.13;5004007;28;20206;-69
2022/05/15 00:53:21;;;;;;;7.33;5.80;;;;;;;6.77;100.00;94164.66;5006777;28;20281;-70
2022/05/15 00:56:07;;;;;;;8.37;5.83;;;;;;;6.69;100.00;94154.84;5006644;28;20749;-69
2022/05/15 00:59:00;;;;;;;7.10;5.93;;;;;;;6.67;100.00;94160.94;5010800;28;20234;-69
2022/05/15 01:01:44;;;;;;;8.43;6.43;;;;;;;6.65;100.00;94160.78;4999586;28;20730;-69
2022/05/15 01:04:31;;;;;;;7.10;5.30;;;;;;;6.67;100.00;94152.59;5000477;28;20253;-69
2022/05/15 01:07:16;;;;;;;5.83;5.23;;;;;;;6.68;100.00;94151.31;5009110;28;20249;-70
2022/05/15 01:10:01;;;;;;;9.03;5.87;;;;;;;6.62;100.00;94158.38;5004298;28;20237;-70
2022/05/15 01:12:48;;;;;;;12.90;6.20;;;;;;;6.53;100.00;94154.16;5002522;28;20806;-69
2022/05/15 01:15:36;;;;;;;6.83;6.00;;;;;;;6.43;100.00;94158.78;5012326;28;20205;-70
2022/05/15 01:18:34;;;;;;;7.63;5.80;;;;;;;6.36;100.00;94159.53;5010103;28;20603;-70
2022/05/15 01:21:24;;;;;;;7.83;6.00;;;;;;;6.30;100.00;94156.94;5008787;28;20223;-69
2022/05/15 01:24:09;;;;;;;6.90;6.20;;;;;;;6.23;100.00;94156.97;5014005;28;20205;-69
2022/05/15 01:26:54;;;;;;;7.67;6.40;;;;;;;6.19;100.00;94159.38;5017649;28;20246;-70
2022/05/15 01:29:45;;;;;;;12.33;6.30;;;;;;;6.17;100.00;94159.94;5007812;28;20203;-70
2022/05/15 01:32:31;;;;;;;8.47;6.37;;;;;;;6.11;100.00;94150.31;5004971;28;20234;-69
2022/05/15 01:35:18;;;;;;;10.70;7.67;;;;;;;6.07;100.00;94151.41;5004335;28;20226;-70
2022/05/15 01:38:04;;;;;;;10.57;7.80;;;;;;;6.05;100.00;94148.44;5029037;28;20225;-70
2022/05/15 01:40:49;;;;;;;16.87;9.13;;;;;;;6.01;100.00;94153.63;5029930;28;20722;-69
2022/05/15 01:43:34;;;;;;;9.23;7.70;;;;;;;5.96;100.00;94151.06;5013011;28;20373;-71
2022/05/15 01:46:22;;;;;;;10.27;8.20;;;;;;;5.94;100.00;94148.81;5011049;28;20213;-71
2022/05/15 01:49:07;;;;;;;12.63;8.90;;;;;;;5.92;100.00;94145.13;5013444;28;20249;-69
2022/05/15 01:51:54;;;;;;;19.10;9.40;;;;;;;5.91;100.00;94154.75;4999825;28;20202;-69
2022/05/15 01:54:40;;;;;;;14.93;9.63;;;;;;;5.87;100.00;94149.56;5008165;28;20545;-69
2022/05/15 01:57:24;;;;;;;16.23;10.77;;;;;;;5.96;100.00;94146.22;4997769;28;20234;-69
2022/05/15 02:00:14;;;;;;;16.27;11.03;;;;;;;5.98;100.00;94149.22;5007524;28;20199;-70
2022/05/15 02:02:58;;;;;;;14.03;9.80;;;;;;;5.91;100.00;94144.38;4998485;28;20221;-70
2022/05/15 02:05:43;;;;;;;9.83;8.70;;;;;;;5.86;100.00;94148.06;5015005;28;20282;-70
2022/05/15 02:08:33;;;;;;;13.37;8.13;;;;;;;5.78;100.00;94150.09;5017722;28;20590;-69
2022/05/15 02:11:18;;;;;;;11.90;9.00;;;;;;;5.75;100.00;94147.66;4999679;28;20675;-69
2022/05/15 02:14:02;;;;;;;13.83;8.27;;;;;;;5.66;100.00;94135.06;5006363;28;20230;-69
2022/05/15 02:16:47;;;;;;;12.93;8.90;;;;;;;5.65;100.00;94139.16;4994341;28;20212;-69
2022/05/15 02:19:31;;;;;;;16.00;8.10;;;;;;;5.57;100.00;94138.38;5013704;28;20265;-69
2022/05/15 02:22:15;;;;;;;9.67;8.37;;;;;;;5.46;100.00;94141.53;5017819;28;20218;-69
2022/05/15 02:25:00;;;;;;;13.27;9.73;;;;;;;5.41;100.00;94132.09;5004601;28;20206;-70
2022/05/15 02:27:46;;;;;;;11.93;9.77;;;;;;;5.41;100.00;94136.91;5024549;28;20278;-70
2022/05/15 02:30:30;;;;;;;21.07;9.60;;;;;;;5.38;100.00;94132.44;5007522;28;20257;-70
2022/05/15 02:33:15;;;;;;;12.60;9.60;;;;;;;5.36;100.00;94123.94;5009758;28;20246;-69
2022/05/15 02:36:01;;;;;;;17.23;10.83;;;;;;;5.40;100.00;94132.63;5031522;28;20226;-69
2022/05/15 02:38:47;;;;;;;14.83;10.17;;;;;;;5.42;100.00;94127.28;5017111;28;20341;-69
2022/05/15 02:41:33;;;;;;;14.67;9.30;;;;;;;5.48;100.00;94125.06;5016491;28;20237;-69
2022/05/15 02:44:18;;;;;;;16.27;9.27;;;;;;;5.42;100.00;94124.50;5010581;28;20325;-69
2022/05/15 02:47:03;;;;;;;14.57;9.63;;;;;;;5.35;100.00;94116.88;5018388;28;20281;-69
2022/05/15 02:52:53;;;;;;;10.53;9.07;;;;;;;5.21;100.00;94122.59;5018181;28;20253;-69
2022/05/15 02:55:38;;;;;;;14.87;9.37;;;;;;;5.13;100.00;94124.59;5013354;28;20993;-69
2022/05/15 02:58:22;;;;;;;17.03;10.90;;;;;;;5.05;100.00;94121.09;5029060;28;20206;-69
2022/05/15 03:01:06;;;;;;;14.17;9.93;;;;;;;5.03;100.00;94126.44;5013057;28;20579;-69
2022/05/15 03:03:50;;;;;;;14.10;9.47;;;;;;;5.02;100.00;94127.72;5014020;28;20206;-68
2022/05/15 03:06:34;;;;;;;13.93;10.87;;;;;;;4.99;100.00;94126.06;5017145;28;20249;-69
2022/05/15 03:09:19;;;;;;;14.07;10.23;;;;;;;5.05;100.00;94129.41;5016909;28;20214;-69
2022/05/15 03:12:04;;;;;;;15.10;10.30;;;;;;;4.99;100.00;94126.06;5023282;28;20206;-69
2022/05/15 03:14:48;;;;;;;13.27;9.83;;;;;;;4.93;100.00;94122.72;5011984;28;20477;-69
2022/05/15 03:17:34;;;;;;;15.03;11.70;;;;;;;4.85;100.00;94127.50;5026553;28;20248;-70
2022/05/15 03:20:19;;;;;;;19.87;11.30;;;;;;;4.78;100.00;94120.63;5030491;28;20264;-70
2022/05/15 03:23:04;;;;;;;20.23;11.97;;;;;;;4.75;100.00;94127.25;5014693;28;20672;-69
2022/05/15 03:25:49;;;;;;;22.63;13.13;;;;;;;4.78;100.00;94125.41;5017132;28;20201;-70
2022/05/15 03:28:33;;;;;;;18.50;12.13;;;;;;;4.74;100.00;94122.28;4993460;28;20281;-70
2022/05/15 03:31:18;;;;;;;21.23;12.43;;;;;;;4.77;100.00;94126.72;5016913;28;20330;-70
2022/05/15 03:34:03;;;;;;;16.73;11.87;;;;;;;4.74;100.00;94120.25;5004930;28;20197;-70
2022/05/15 03:36:51;;;;;;;16.60;12.73;;;;;;;4.76;100.00;94125.22;5015188;28;20237;-71
2022/05/15 03:39:35;;;;;;;18.67;13.43;;;;;;;4.73;100.00;94126.34;5009135;28;20303;-71
2022/05/15 03:42:19;;;;;;;19.17;12.90;;;;;;;4.69;100.00;94120.41;5008238;28;20334;-71
2022/05/15 03:45:04;;;;;;;23.37;14.43;;;;;;;4.73;100.00;94127.06;5006243;28;20237;-70
2022/05/15 03:47:51;;;;;;;21.70;14.47;;;;;;;4.76;100.00;94125.22;5001660;28;20265;-71
2022/05/15 03:50:36;;;;;;;19.13;13.30;;;;;;;4.78;100.00;94122.66;5008659;28;20264;-71
2022/05/15 03:53:20;;;;;;;20.53;11.47;;;;;;;4.83;100.00;94124.50;5007854;28;20956;-71
2022/05/15 03:56:05;;;;;;;21.60;13.37;;;;;;;4.88;100.00;94120.81;5010325;28;20257;-71
2022/05/15 03:58:49;;;;;;;18.97;11.27;;;;;;;4.92;100.00;94124.00;5005915;28;20214;-71
2022/05/15 04:01:33;;;;;;;15.53;11.83;;;;;;;4.91;100.00;94116.97;5010959;28;20241;-71
2022/05/15 04:04:18;;;;;;;19.93;11.13;;;;;;;4.89;100.00;94127.88;5019759;28;20210;-70
2022/05/15 04:07:02;;;;;;;24.47;11.00;;;;;;;4.90;100.00;94121.03;4996427;28;20202;-71
2022/05/15 04:09:47;;;;;;;19.37;12.10;;;;;;;4.89;100.00;94123.06;5002531;28;20709;-71
2022/05/15 04:12:31;;;;;;;19.40;12.60;;;;;;;4.92;100.00;94126.78;5009739;28;20202;-70
2022/05/15 04:15:16;;;;;;;19.87;13.23;;;;;;;5.03;100.00;94129.22;5005392;28;20210;-71
2022/05/15 04:18:01;;;;;;;23.00;13.53;;;;;;;5.10;100.00;94131.28;5010888;28;20594;-71
2022/05/15 04:20:46;;;;;;;21.83;13.17;;;;;;;5.16;100.00;94129.06;5007454;28;20256;-71
2022/05/15 04:23:30;;;;;;;15.87;11.87;;;;;;;5.25;100.00;94125.75;5015366;28;20205;-71
2022/05/15 04:26:14;;;;;;;21.87;13.40;;;;;;;5.32;100.00;94140.19;5022417;28;20319;-71
2022/05/15 04:28:59;;;;;;;15.93;13.10;;;;;;;5.40;100.00;94135.41;5014770;28;20284;-71
2022/05/15 04:31:43;;;;;;;15.87;12.77;;;;;;;5.42;100.00;94133.56;5013979;28;20210;-70
2022/05/15 04:34:28;;;;;;;18.10;13.30;;;;;;;5.50;100.00;94139.13;4998654;28;20201;-70
2022/05/15 04:37:12;;;;;;;18.23;13.77;;;;;;;5.61;100.00;94144.34;5002219;28;20207;-70
2022/05/15 04:39:56;;;;;;;20.63;14.10;;;;;;;5.71;100.00;94139.72;5015117;28;20210;-71
2022/05/15 04:42:41;;;;;;;18.60;13.13;;;;;;;5.76;100.00;94138.78;5021094;28;20599;-70
2022/05/15 04:45:25;;;;;;;19.57;13.43;;;;;;;5.92;100.00;94139.56;5025495;28;20265;-70
2022/05/15 04:48:10;;;;;;;15.97;12.77;;;;;;;6.07;100.00;94151.41;5031429;28;20214;-70
2022/05/15 04:50:54;;;;;;;16.07;13.20;;;;;;;6.26;100.00;94142.69;5023407;28;20206;-71
2022/05/15 04:53:38;;;;;;;28.40;13.83;;;;;;;6.43;100.00;94147.66;5026249;28;20242;-70
2022/05/15 04:56:22;;;;;;;17.67;13.33;;;;;;;6.56;100.00;94144.66;5006264;28;20253;-70
2022/05/15 04:59:07;;;;;;;15.23;12.50;;;;;;;6.73;100.00;94142.00;5024203;28;20202;-70
2022/05/15 05:01:50;;;;;;;22.93;16.03;;;;;;;7.02;100.00;94145.25;5021882;28;20640;-70
2022/05/15 05:04:34;;;;;;;23.40;15.37;;;;;;;7.29;100.00;94151.06;5019951;28;20605;-70
2022/05/15 05:07:18;;;;;;;23.87;15.93;;;;;;;7.51;100.00;94144.63;5024692;28;20241;-71
2022/05/15 05:10:03;;;;;;;25.43;15.90;;;;;;;7.69;100.00;94146.19;5025407;28;20651;-71
2022/05/15 05:12:48;;;;;;;20.50;15.00;;;;;;;7.90;100.00;94150.69;5015604;28;20281;-70
2022/05/15 05:15:33;;;;;;;20.93;14.37;;;;;;;8.05;100.00;94145.00;5016035;28;20229;-71
2022/05/15 05:18:18;;;;;;;19.80;14.87;;;;;;;8.30;100.00;94154.09;5022676;28;20793;-70
2022/05/15 05:21:04;;;;;;;24.97;16.17;;;;;;;8.61;100.00;94153.81;5016144;28;20286;-71
2022/05/15 05:23:48;;;;;;;22.63;15.73;;;;;;;8.81;100.00;94149.88;5026464;28;20210;-71
2022/05/15 05:26:33;;;;;;;19.87;14.37;;;;;;;9.05;100.00;94154.66;5026324;28;20214;-72
2022/05/15 05:29:17;;;;;;;19.50;15.43;;;;;;;9.30;100.00;94154.53;4995991;28;20253;-71
2022/05/15 05:32:01;;;;;;;23.00;15.43;;;;;;;9.56;100.00;94158.66;4996274;28;20207;-71
2022/05/15 05:34:45;;;;;;;24.17;16.57;;;;;;;9.80;100.00;94149.38;5002795;28;20222;-71
2022/05/15 05:37:30;;;;;;;21.20;17.03;;;;;;;10.03;100.00;94152.56;4991408;28;20237;-71
2022/05/15 05:40:15;;;;;;;24.23;17.43;;;;;;;10.25;100.00;94152.78;5011102;28;20357;-71
2022/05/15 05:43:00;;;;;;;22.50;17.03;;;;;;;10.44;100.00;94158.47;5023083;28;20229;-71
2022/05/15 05:45:44;;;;;;;26.93;16.07;;;;;;;10.74;100.00;94157.91;5028348;28;20206;-71
2022/05/15 05:48:29;;;;;;;17.97;14.97;;;;;;;10.99;100.00;94160.44;5028336;28;20217;-71
2022/05/15 05:51:15;;;;;;;17.20;11.73;;;;;;;11.05;100.00;94163.00;5017244;28;20290;-71
2022/05/15 05:54:00;;;;;;;13.23;11.47;;;;;;;11.17;100.00;94169.47;5010987;28;20249;-71
2022/05/15 05:56:43;;;;;;;13.37;10.43;;;;;;;11.31;100.00;94171.22;5021879;28;20575;-71
2022/05/15 05:59:28;;;;;;;13.60;9.97;;;;;;;11.40;100.00;94169.75;5007912;28;20273;-71
2022/05/15 06:02:12;;;;;;;11.70;9.17;;;;;;;11.55;100.00;94169.44;5015083;28;20226;-70
2022/05/15 06:04:56;;;;;;;12.17;8.53;;;;;;;11.89;100.00;94173.97;5009143;28;20699;-71
2022/05/15 06:07:41;;;;;;;12.37;7.60;;;;;;;11.91;100.00;94173.41;5022317;28;20218;-70
2022/05/15 06:10:25;;;;;;;10.07;7.70;;;;;;;12.11;100.00;94171.97;5014500;28;20628;-71
2022/05/15 06:13:09;;;;;;;13.40;7.53;;;;;;;12.34;100.00;94171.47;5010116;28;20583;-71
2022/05/15 06:15:54;;;;;;;9.17;6.57;;;;;;;12.49;100.00;94177.44;5022404;28;20683;-69
2022/05/15 06:18:39;;;;;;;10.03;6.53;;;;;;;12.73;100.00;94181.16;5029308;28;20695;-71
2022/05/15 06:21:23;;;;;;;6.93;6.00;;;;;;;12.91;100.00;94176.00;5015196;28;20227;-69
2022/05/15 06:24:08;;;;;;;7.60;6.73;;;;;;;13.12;100.00;94178.88;5024583;28;20202;-70
2022/05/15 06:26:54;;;;;;;9.83;6.57;;;;;;;13.24;100.00;94178.91;5006743;28;20227;-70
2022/05/15 06:29:39;;;;;;;7.37;5.57;;;;;;;13.44;100.00;94168.25;5009783;28;20675;-71
2022/05/15 06:32:26;;;;;;;9.00;5.97;;;;;;;13.43;100.00;94172.41;4982992;28;20245;-73
2022/05/15 06:35:12;;;;;;;12.80;5.93;;;;;;;13.50;100.00;94177.09;4986947;28;20255;-74
2022/05/15 06:38:03;;;;;;;8.13;5.50;;;;;;;13.78;100.00;94176.81;4994690;28;20338;-70
2022/05/15 06:40:48;;;;;;;10.03;5.33;;;;;;;13.97;100.00;94184.31;4990996;28;20711;-72
2022/05/15 06:43:33;;;;;;;8.10;4.80;;;;;;;14.39;100.00;94171.41;5009588;28;20279;-72
2022/05/15 06:46:17;;;;;;;5.83;5.03;;;;;;;14.73;97.06;94167.13;5003384;28;20211;-70
2022/05/15 06:49:01;;;;;;;8.37;4.70;;;;;;;14.86;95.84;94167.25;4991562;28;20238;-69
2022/05/15 06:51:45;;;;;;;9.80;4.90;;;;;;;15.19;97.03;94175.50;4995731;28;20204;-71
2022/05/15 06:54:29;;;;;;;5.40;4.13;;;;;;;15.40;95.53;94185.88;4988143;28;20350;-70
2022/05/15 06:57:29;;;;;;;8.00;4.13;;;;;;;15.39;95.77;94170.28;4997138;28;20238;-70
2022/05/15 07:00:22;;;;;;;4.63;3.73;;;;;;;15.62;92.99;94175.13;5002084;28;20246;-69
2022/05/15 07:03:06;;;;;;;4.23;2.70;;;;;;;15.91;81.61;94172.56;5011217;28;20731;-70
2022/05/15 07:05:51;;;;;;;6.00;3.30;;;;;;;16.21;78.00;94169.94;4992742;28;21587;-70
2022/05/15 07:08:36;;;;;;;7.17;2.97;;;;;;;16.20;78.66;94163.53;5005264;28;20211;-69
2022/05/15 07:11:20;;;;;;;3.67;2.30;;;;;;;16.64;76.87;94164.47;5006604;28;20310;-69
2022/05/15 07:14:04;;;;;;;4.40;2.87;;;;;;;16.72;72.98;94171.31;5016568;28;20226;-69
2022/05/15 07:16:49;;;;;;;7.43;2.53;;;;;;;17.22;72.45;94173.16;4999088;28;20211;-70
2022/05/15 07:19:33;;;;;;;6.63;2.75;;;;;;;17.27;73.26;94176.94;4989827;28;20254;-69
2022/05/15 07:22:17;;;;;;;4.07;2.42;;;;;;;17.43;73.52;94171.34;4993108;28;20250;-70
2022/05/15 07:25:01;;;;;;;3.53;2.30;;;;;;;17.63;72.82;94178.03;5009788;28;20258;-70
2022/05/15 07:27:45;;;;;;;7.05;2.40;;;;;;;17.87;69.48;94173.56;5016113;28;20198;-69
2022/05/15 07:30:29;;;;;;;4.57;2.03;;;;;;;17.95;69.57;94178.88;4988079;28;20210;-71
2022/05/15 07:33:13;;;;;;;3.83;2.05;;;;;;;18.28;68.99;94169.78;5001124;28;20340;-71
2022/05/15 07:35:57;;;;;;;4.45;2.53;;;;;;;18.32;68.13;94176.41;4997641;28;20401;-71
2022/05/15 07:38:42;;;;;;;4.85;2.28;;;;;;;18.33;69.43;94183.53;5010412;28;20683;-72
2022/05/15 07:41:26;;;;;;;3.10;2.70;;;;;;;19.32;67.94;94181.56;4995570;28;20226;-72
2022/05/15 07:44:12;;;;;;;4.75;2.25;;;;;;;19.35;67.45;94166.09;5027755;28;20333;-71
2022/05/15 07:46:57;;;;;;;5.45;2.30;;;;;;;19.77;62.95;94170.72;5030800;28;20194;-70
2022/05/15 07:49:42;;;;;;;3.78;2.08;;;;;;;20.28;59.00;94167.06;5016152;28;20234;-71
2022/05/15 07:52:26;;;;;;;4.78;2.67;;;;;;;20.34;57.87;94163.75;5009519;28;20253;-71
2022/05/15 07:55:11;;;;;;;4.43;2.05;;;;;;;20.95;57.72;94163.91;5021981;28;20258;-72
2022/05/15 07:57:55;;;;;;;6.05;2.15;;;;;;;21.86;51.71;94164.22;5007690;28;20288;-68
2022/05/15 08:00:39;;;;;;;5.65;1.90;;;;;;;22.03;51.52;94174.84;5010466;28;20223;-70
2022/05/15 08:03:23;;;;;;;4.38;2.20;;;;;;;22.90;47.12;94177.50;5012600;28;20202;-70
2022/05/15 08:09:10;;;;;;;3.35;2.10;;;;;;;21.96;49.11;94172.44;5022395;28;20638;-70
2022/05/15 08:11:54;;;;;;;4.90;1.80;;;;;;;22.62;47.24;94176.66;5021018;28;20210;-70
2022/05/15 08:14:38;;;;;;;4.80;2.25;;;;;;;22.55;47.34;94172.16;5011233;28;20579;-70
2022/05/15 08:17:23;;;;;;;3.05;2.22;;;;;;;22.12;47.85;94159.41;5027860;28;20234;-70
2022/05/15 08:26:13;;;;;;;6.43;2.05;;;;;;;23.70;42.25;94166.88;5019160;28;20246;-70
2022/05/15 08:28:58;;;;;;;5.80;2.03;;;;;;;23.31;42.83;94172.97;5010699;28;21628;-70
2022/05/15 08:31:42;;;;;;;3.72;1.98;;;;;;;23.47;41.42;94173.44;4995778;28;20194;-70
2022/05/15 08:34:27;;;;;;;2.55;1.30;;;;;;;23.48;41.66;94169.16;5021663;28;20359;-71
2022/05/15 08:37:11;;;;;;;2.55;1.60;;;;;;;24.20;38.99;94169.59;5015743;28;20202;-71
2022/05/15 08:39:55;;;;;;;4.13;1.48;;;;;;;24.79;41.59;94168.09;5013513;28;20194;-69
2022/05/15 08:42:56;;;;;;;5.00;1.50;;;;;;;24.52;40.52;94170.34;5009440;28;20284;-69
2022/05/15 08:45:49;;;;;;;4.57;1.88;;;;;;;23.47;40.67;94167.69;5010681;28;20201;-70
2022/05/15 08:48:37;;;;;;;3.83;1.67;;;;;;;24.21;40.60;94173.91;5014817;28;20621;-69
2022/05/15 08:51:22;;;;;;;2.70;1.58;;;;;;;24.72;37.99;94175.09;4996246;28;20207;-69
2022/05/15 08:54:09;;;;;;;7.10;1.90;;;;;;;24.64;38.24;94169.16;5011126;28;20233;-70
2022/05/15 08:56:54;;;;;;;5.97;1.50;;;;;;;24.24;38.24;94175.44;5011804;28;20234;-70
2022/05/15 08:59:51;;;;;;;2.83;1.40;;;;;;;25.12;37.42;94181.00;5001109;28;20223;-69
2022/05/15 09:02:35;;;;;;;2.60;1.48;;;;;;;24.71;36.57;94179.34;5003524;28;20340;-70
2022/05/15 09:05:19;;;;;;;4.18;1.70;;;;;;;24.96;33.86;94169.91;5027156;28;20297;-70
2022/05/15 09:08:48;;;;;;;3.50;1.73;;;;;;;24.94;36.03;94167.00;5011279;28;20614;-70
2022/05/15 09:11:39;;;;;;;3.58;1.60;;;;;;;25.28;36.54;94179.19;5003822;28;20210;-72
2022/05/15 09:14:41;;;;;;;2.38;1.67;;;;;;;25.05;34.04;94176.56;5027628;28;20209;-74
2022/05/15 09:17:38;;;;;;;8.55;1.60;;;;;;;25.26;35.09;94173.41;4998977;28;20295;-68
2022/05/15 09:20:25;;;;;;;2.70;1.45;;;;;;;26.51;33.49;94168.47;5005199;28;20217;-69
2022/05/15 09:23:29;;;;;;;4.35;1.75;;;;;;;26.25;33.95;94159.44;5000218;28;20218;-69
2022/05/15 09:26:20;;;;;;;3.00;1.48;;;;;;;26.88;33.21;94164.00;4999555;28;20213;-71
2022/05/15 09:29:14;;;;;;;7.10;1.80;;;;;;;26.58;34.04;94161.41;5014528;28;20362;-68
2022/05/15 09:31:59;;;;;;;7.28;1.73;;;;;;;26.96;34.26;94164.88;5010615;28;20281;-68
2022/05/15 09:34:43;;;;;;;2.30;1.30;;;;;;;26.38;32.54;94161.09;5020677;28;20733;-69
2022/05/15 09:44:33;;;;;;;4.22;1.45;;;;;;;26.40;33.55;94158.25;4945634;28;20208;-70
2022/05/15 09:47:29;;;;;;;4.00;2.10;;;;;;;27.28;33.85;94163.84;4964870;28;20692;-69
2022/05/15 09:50:47;;;;;;;1.92;1.55;;;;;;;28.79;32.13;94175.41;4989666;28;20687;-68
2022/05/15 09:53:44;;;;;;;4.07;1.80;;;;;;;28.83;29.32;94163.88;5020195;28;20902;-69
2022/05/15 09:56:32;;;;;;;4.32;1.58;;;;;;;29.25;27.20;94166.28;5027599;28;20365;-72
2022/05/15 09:59:17;;;;;;;3.10;1.40;;;;;;;30.73;25.76;94166.63;5024925;28;20253;-70
2022/05/15 10:02:02;;;;;;;2.95;1.50;;;;;;;29.99;27.96;94160.09;5023293;28;20633;-72
2022/05/15 10:04:49;;;;;;;2.55;1.48;;;;;;;29.15;29.01;94158.28;5018252;28;20292;-70
2022/05/15 10:07:44;;;;;;;4.50;1.63;;;;;;;29.58;27.61;94159.22;5011895;28;20234;-71
2022/05/15 10:10:53;;;;;;;3.88;1.35;;;;;;;28.67;27.72;94150.06;5015527;28;20703;-71
2022/05/15 10:13:44;;;;;;;1.45;1.00;;;;;;;30.06;28.07;94152.84;5023475;28;20499;-70
2022/05/15 10:16:32;;;;;;;3.63;1.77;;;;;;;29.65;26.43;94143.34;5019075;28;20264;-70
2022/05/15 10:19:34;;;;;;;5.60;1.67;;;;;;;30.11;24.81;94148.53;5009060;28;20292;-70
2022/05/15 10:22:54;;;;;;;3.22;1.90;;;;;;;30.60;25.32;94148.56;5022778;28;20222;-69
2022/05/15 10:25:47;;;;;;;4.63;2.40;;;;;;;29.93;27.84;94142.75;5027659;28;20262;-69
2022/05/15 10:28:42;;;;;;;3.95;1.70;;;;;;;31.29;26.16;94142.66;4988861;28;20777;-69
2022/05/15 10:31:39;;;;;;;3.35;1.65;;;;;;;30.44;24.65;94142.75;5021973;28;20258;-68
2022/05/15 10:34:26;;;;;;;4.35;1.50;;;;;;;30.98;24.19;94144.16;5010303;28;20252;-69
2022/05/15 10:37:50;;;;;;;4.93;2.13;;;;;;;31.59;23.86;94141.81;5025669;28;20202;-69
2022/05/15 10:40:47;;;;;;;4.07;1.65;;;;;;;31.86;24.38;94142.38;5003120;28;20226;-68
2022/05/15 10:43:50;;;;;;;3.42;1.42;;;;;;;32.56;23.13;94140.47;5009961;28;20703;-68
2022/05/15 10:46:44;;;;;;;2.67;1.15;;;;;;;33.21;21.73;94141.31;5027037;28;20214;-72
2022/05/15 10:49:37;;;;;;;2.70;1.30;;;;;;;32.73;20.62;94135.97;5012725;28;20218;-74
2022/05/15 10:52:30;;;;;;;2.25;1.88;;;;;;;32.39;21.92;94129.00;5030403;28;20199;-71
2022/05/15 10:59:00;;;;;;;5.75;2.90;;;;;;;33.28;22.52;94122.34;5029249;28;20264;-69
2022/05/15 11:01:44;;;;;;;4.78;1.73;;;;;;;33.58;20.93;94120.53;5032351;28;20268;-70
2022/05/15 11:04:53;;;;;;;10.30;3.33;;;;;;;33.00;21.70;94119.75;5027617;28;20217;-71
2022/05/15 11:07:43;;;;;;;3.35;1.50;;;;;;;34.24;18.83;94121.84;5004842;28;20272;-71
2022/05/15 11:10:39;;;;;;;3.28;1.42;;;;;;;34.69;19.96;94113.06;5023338;28;20206;-70
2022/05/15 11:13:44;;;;;;;4.63;1.40;;;;;;;35.36;19.18;94111.88;5026366;28;20261;-70
2022/05/15 11:17:06;;;;;;;3.45;1.50;;;;;;;35.43;20.03;94113.19;5011750;28;20218;-72
2022/05/15 11:19:53;;;;;;;4.70;1.45;;;;;;;36.09;18.67;94108.13;5019491;28;20206;-69
2022/05/15 11:22:45;;;;;;;4.15;1.17;;;;;;;35.89;19.50;94104.94;5004673;28;20324;-70
2022/05/15 11:25:33;;;;;;;4.25;1.45;;;;;;;37.94;16.80;94104.03;5027367;28;20207;-71
2022/05/15 11:28:21;;;;;;;2.97;1.23;;;;;;;36.13;19.15;94098.56;5028846;28;20806;-71
2022/05/15 11:31:13;;;;;;;4.88;1.20;;;;;;;37.73;17.38;94091.47;5029967;28;20207;-71
2022/05/15 11:33:58;;;;;;;4.25;1.35;;;;;;;34.77;18.76;94086.75;5022187;28;20203;-71
2022/05/15 11:36:49;;;;;;;3.88;1.25;;;;;;;37.19;16.69;94091.56;5030573;28;20202;-71
2022/05/15 11:39:58;;;;;;;1.48;1.17;;;;;;;37.70;16.38;94092.34;5017566;28;20309;-71
2022/05/15 11:42:42;;;;;;;5.10;1.73;;;;;;;37.26;16.87;94084.03;5007041;28;20221;-71
2022/05/15 11:45:35;;;;;;;3.22;1.00;;;;;;;37.43;17.61;94083.56;5001527;28;20732;-72
2022/05/15 11:48:24;;;;;;;2.35;1.10;;;;;;;37.46;16.37;94076.19;5015274;28;20237;-72
2022/05/15 11:51:12;;;;;;;4.57;1.23;;;;;;;38.81;16.29;94080.03;5004782;28;20293;-72
2022/05/15 11:54:03;;;;;;;2.25;1.30;;;;;;;39.10;15.96;94076.84;5025657;28;20240;-72
2022/05/15 11:56:50;;;;;;;3.67;1.13;;;;;;;39.94;15.40;94067.13;5012309;28;20419;-72
2022/05/15 11:59:46;;;;;;;3.08;1.30;;;;;;;38.46;17.75;94072.38;5020737;28;20259;-71
2022/05/15 12:02:29;;;;;;;3.30;1.30;;;;;;;37.25;17.53;94065.06;5029476;28;20205;-72
2022/05/15 12:05:37;;;;;;;4.55;1.42;;;;;;;38.98;15.14;94062.63;5004137;28;20698;-72
2022/05/15 12:08:22;;;;;;;2.92;1.30;;;;;;;40.92;14.24;94061.00;5000073;28;20818;-71
2022/05/15 12:11:36;;;;;;;2.53;1.20;;;;;;;41.03;14.15;94059.03;4997736;28;20234;-71
2022/05/15 12:14:26;;;;;;;2.28;1.33;;;;;;;41.45;13.96;94052.81;5000299;28;20202;-72
2022/05/15 12:17:34;;;;;;;2.90;1.35;;;;;;;40.81;13.22;94062.94;4997967;28;20210;-72
2022/05/15 12:20:18;;;;;;;1.40;1.20;;;;;;;40.43;15.29;94051.25;5011784;28;20201;-71
2022/05/15 12:23:17;;;;;;;2.28;1.48;;;;;;;39.87;15.45;94047.66;5029740;28;20578;-72
2022/05/15 12:26:07;;;;;;;4.70;1.60;;;;;;;40.16;16.09;94042.06;5009129;28;20269;-72
2022/05/15 12:29:15;;;;;;;3.10;1.30;;;;;;;40.43;15.98;94044.66;4999206;28;20202;-72
2022/05/15 12:31:59;;;;;;;1.77;1.08;;;;;;;39.21;15.78;94042.72;5012346;28;20233;-72
2022/05/15 12:34:48;;;;;;;6.18;1.52;;;;;;;40.98;15.47;94037.22;5008350;28;20199;-72
2022/05/15 12:37:50;;;;;;;5.60;1.55;;;;;;;38.40;18.25;94031.56;5019476;28;20201;-72
2022/05/15 12:40:39;;;;;;;5.00;1.52;;;;;;;39.47;17.12;94029.34;5026774;28;20789;-72
2022/05/15 12:43:29;;;;;;;5.50;1.52;;;;;;;39.26;17.21;94026.41;5025461;28;20281;-72
2022/05/15 12:46:35;;;;;;;2.88;1.30;;;;;;;38.03;17.40;94023.28;5016027;28;20277;-72
2022/05/15 12:49:42;;;;;;;5.72;1.35;;;;;;;37.57;17.89;94027.63;4998458;28;20209;-72
2022/05/15 12:52:30;;;;;;;3.22;1.42;;;;;;;38.72;17.40;94026.84;5019787;28;20772;-72
2022/05/15 12:55:25;;;;;;;2.78;1.50;;;;;;;38.01;18.03;94025.53;5024479;28;20213;-72
2022/05/15 12:58:09;;;;;;;4.57;1.40;;;;;;;39.01;19.04;94014.16;5021392;28;20347;-72
2022/05/15 13:00:54;;;;;;;4.10;1.40;;;;;;;40.27;17.50;94021.84;5006658;28;20209;-73
2022/05/15 13:03:43;;;;;;;4.85;1.48;;;;;;;39.48;19.39;94016.09;5009367;28;20385;-72
2022/05/15 13:06:52;;;;;;;5.80;1.40;;;;;;;37.11;19.93;94006.28;5009891;28;20575;-72
2022/05/15 13:09:38;;;;;;;4.30;1.35;;;;;;;38.46;18.68;94007.22;5004707;28;20202;-72
2022/05/15 13:12:22;;;;;;;3.33;1.75;;;;;;;38.84;18.20;94005.91;5014485;28;20230;-72
2022/05/15 13:15:10;;;;;;;4.22;1.80;;;;;;;39.07;18.38;93996.38;5022999;28;20705;-70
2022/05/15 13:17:58;;;;;;;3.38;1.25;;;;;;;40.40;17.62;93994.09;5009645;28;20198;-72
2022/05/15 13:20:48;;;;;;;2.65;1.35;;;;;;;39.48;18.09;93995.56;5029307;28;20226;-72
2022/05/15 13:23:36;;;;;;;1.75;1.48;;;;;;;39.68;19.05;93997.72;5026447;28;20208;-72
2022/05/15 13:26:28;;;;;;;2.40;1.30;;;;;;;36.63;20.68;93982.03;5005286;28;20198;-72